| Date | Time | Temp. (oF) | Dew Point (oF) | Rel. Hum. (%) | Press. (in.) | Wind Dir. | Wind Speed (mph) | Hourly Rainfall (in.) |
|
|---|---|---|---|---|---|---|---|---|---|
| 1 | 10/18 | 00:00 | 63 | 59 | 89 | 29.84 | ESE | 0 | 0.00 |
| 2 | 10/17 | 23:00 | 63 | 59 | 89 | 29.84 | ESE | 0 | 0.00 |
| 3 | 10/17 | 22:00 | 64 | 59 | 84 | 29.84 | ESE | 0 | 0.00 |
| 4 | 10/17 | 21:00 | 65 | 58 | 79 | 29.83 | E | 0 | 0.00 |
| 5 | 10/17 | 20:00 | 68 | 59 | 74 | 29.83 | E | 0 | 0.00 |
| 6 | 10/17 | 19:00 | 73 | 60 | 64 | 29.81 | ESE | 0 | 0.00 |
| 7 | 10/17 | 18:00 | 77 | 59 | 55 | 29.80 | ESE | 0 | 0.00 |
| 8 | 10/17 | 17:00 | 79 | 60 | 54 | 29.80 | SE | 0 | 0.00 |
| 9 | 10/17 | 16:00 | 79 | 59 | 51 | 29.81 | SE | 0 | 0.00 |
| 10 | 10/17 | 15:00 | 80 | 60 | 51 | 29.82 | SSE | 0 | 0.00 |
| 11 | 10/17 | 14:00 | 80 | 58 | 49 | 29.84 | ESE | 0 | 0.00 |
| 12 | 10/17 | 13:00 | 79 | 59 | 52 | 29.87 | SE | 4 | 0.00 |
| 13 | 10/17 | 12:00 | 76 | 61 | 61 | 29.90 | ESE | 2 | 0.00 |
| 14 | 10/17 | 11:00 | 69 | 62 | 80 | 29.92 | ESE | 0 | 0.00 |
| 15 | 10/17 | 10:00 | 61 | 60 | 98 | 29.92 | NE | 1 | 0.00 |
| 16 | 10/17 | 09:00 | 54 | 54 | 100 | 29.94 | E | 0 | 0.00 |
| 17 | 10/17 | 08:00 | 52 | 51 | 100 | 29.93 | E | 0 | 0.00 |
| 18 | 10/17 | 07:00 | 51 | 50 | 99 | 29.92 | NNE | 0 | 0.00 |
| 19 | 10/17 | 06:00 | 52 | 51 | 98 | 29.92 | ESE | 0 | 0.00 |
| 20 | 10/17 | 05:00 | 52 | 51 | 98 | 29.92 | ESE | 0 | 0.00 |
| 21 | 10/17 | 04:00 | 53 | 51 | 96 | 29.93 | SSE | 0 | 0.00 |
| 22 | 10/17 | 03:00 | 54 | 52 | 95 | 29.94 | E | 0 | 0.00 |
| 23 | 10/17 | 02:00 | 55 | 53 | 94 | 29.95 | E | 0 | 0.00 |
| 24 | 10/17 | 01:00 | 57 | 54 | 92 | 29.97 | NE | 0 | 0.00 |